sensor_id;sensor_type;location;lat;lon;timestamp;temperature;humidity
14733;DHT22;7457;50.960;6.830;2023-06-10T00:01:49;17.30;70.80
14733;DHT22;7457;50.960;6.830;2023-06-10T00:04:15;17.20;70.90
14733;DHT22;7457;50.960;6.830;2023-06-10T00:06:45;17.20;71.10
14733;DHT22;7457;50.960;6.830;2023-06-10T00:09:14;17.20;71.20
14733;DHT22;7457;50.960;6.830;2023-06-10T00:11:40;17.10;71.20
14733;DHT22;7457;50.960;6.830;2023-06-10T00:14:06;17.00;71.40
14733;DHT22;7457;50.960;6.830;2023-06-10T00:16:32;16.90;71.80
14733;DHT22;7457;50.960;6.830;2023-06-10T00:18:59;16.80;72.20
14733;DHT22;7457;50.960;6.830;2023-06-10T00:21:31;16.80;72.60
14733;DHT22;7457;50.960;6.830;2023-06-10T00:24:08;16.80;73.00
14733;DHT22;7457;50.960;6.830;2023-06-10T00:26:41;16.70;73.10
14733;DHT22;7457;50.960;6.830;2023-06-10T00:29:07;16.70;73.50
14733;DHT22;7457;50.960;6.830;2023-06-10T00:31:37;16.70;73.50
14733;DHT22;7457;50.960;6.830;2023-06-10T00:34:03;16.70;73.90
14733;DHT22;7457;50.960;6.830;2023-06-10T00:36:29;16.70;73.80
14733;DHT22;7457;50.960;6.830;2023-06-10T00:38:56;16.60;73.80
14733;DHT22;7457;50.960;6.830;2023-06-10T00:41:21;16.50;73.90
14733;DHT22;7457;50.960;6.830;2023-06-10T00:43:47;16.50;74.10
14733;DHT22;7457;50.960;6.830;2023-06-10T00:46:13;16.40;74.20
14733;DHT22;7457;50.960;6.830;2023-06-10T00:48:42;16.30;74.40
14733;DHT22;7457;50.960;6.830;2023-06-10T00:51:09;16.20;74.80
14733;DHT22;7457;50.960;6.830;2023-06-10T00:53:36;16.20;74.80
14733;DHT22;7457;50.960;6.830;2023-06-10T00:56:04;16.10;74.90
14733;DHT22;7457;50.960;6.830;2023-06-10T00:58:30;16.00;75.10
14733;DHT22;7457;50.960;6.830;2023-06-10T01:00:56;15.90;75.30
14733;DHT22;7457;50.960;6.830;2023-06-10T01:03:23;15.80;75.50
14733;DHT22;7457;50.960;6.830;2023-06-10T01:05:57;15.80;75.80
14733;DHT22;7457;50.960;6.830;2023-06-10T01:08:43;15.70;76.30
14733;DHT22;7457;50.960;6.830;2023-06-10T01:11:18;15.70;76.40
14733;DHT22;7457;50.960;6.830;2023-06-10T01:13:45;15.70;76.70
14733;DHT22;7457;50.960;6.830;2023-06-10T01:16:11;15.70;76.80
14733;DHT22;7457;50.960;6.830;2023-06-10T01:18:40;15.70;76.90
14733;DHT22;7457;50.960;6.830;2023-06-10T01:21:08;15.70;77.10
14733;DHT22;7457;50.960;6.830;2023-06-10T01:23:34;15.70;77.10
14733;DHT22;7457;50.960;6.830;2023-06-10T01:26:03;15.80;77.10
14733;DHT22;7457;50.960;6.830;2023-06-10T01:28:38;15.80;77.20
14733;DHT22;7457;50.960;6.830;2023-06-10T01:33:41;15.90;77.30
14733;DHT22;7457;50.960;6.830;2023-06-10T01:36:07;15.90;77.40
14733;DHT22;7457;50.960;6.830;2023-06-10T01:38:38;15.80;77.30
14733;DHT22;7457;50.960;6.830;2023-06-10T01:41:06;15.80;77.60
14733;DHT22;7457;50.960;6.830;2023-06-10T01:43:37;15.80;77.60
14733;DHT22;7457;50.960;6.830;2023-06-10T01:46:02;15.70;77.80
14733;DHT22;7457;50.960;6.830;2023-06-10T01:48:28;15.70;77.70
14733;DHT22;7457;50.960;6.830;2023-06-10T01:50:53;15.70;77.90
14733;DHT22;7457;50.960;6.830;2023-06-10T01:53:21;15.60;78.10
14733;DHT22;7457;50.960;6.830;2023-06-10T01:55:47;15.60;78.30
14733;DHT22;7457;50.960;6.830;2023-06-10T01:58:13;15.60;78.50
14733;DHT22;7457;50.960;6.830;2023-06-10T02:00:39;15.60;78.60
14733;DHT22;7457;50.960;6.830;2023-06-10T02:03:04;15.50;78.70
14733;DHT22;7457;50.960;6.830;2023-06-10T02:05:30;15.50;78.80
14733;DHT22;7457;50.960;6.830;2023-06-10T02:07:56;15.50;78.80
14733;DHT22;7457;50.960;6.830;2023-06-10T02:10:21;15.50;78.80
14733;DHT22;7457;50.960;6.830;2023-06-10T02:12:47;15.50;78.90
14733;DHT22;7457;50.960;6.830;2023-06-10T02:15:13;15.40;79.00
14733;DHT22;7457;50.960;6.830;2023-06-10T02:17:38;15.40;79.10
14733;DHT22;7457;50.960;6.830;2023-06-10T02:20:05;15.40;79.30
14733;DHT22;7457;50.960;6.830;2023-06-10T02:22:32;15.40;79.40
14733;DHT22;7457;50.960;6.830;2023-06-10T02:24:58;15.40;79.60
14733;DHT22;7457;50.960;6.830;2023-06-10T02:27:24;15.40;79.70
14733;DHT22;7457;50.960;6.830;2023-06-10T02:29:50;15.40;79.70
14733;DHT22;7457;50.960;6.830;2023-06-10T02:32:16;15.40;79.70
14733;DHT22;7457;50.960;6.830;2023-06-10T02:34:42;15.40;79.60
14733;DHT22;7457;50.960;6.830;2023-06-10T02:37:11;15.40;79.40
14733;DHT22;7457;50.960;6.830;2023-06-10T02:39:37;15.30;79.00
14733;DHT22;7457;50.960;6.830;2023-06-10T02:42:02;15.20;79.00
14733;DHT22;7457;50.960;6.830;2023-06-10T02:44:28;15.10;79.30
14733;DHT22;7457;50.960;6.830;2023-06-10T02:46:54;15.00;79.60
14733;DHT22;7457;50.960;6.830;2023-06-10T02:49:19;15.00;79.80
14733;DHT22;7457;50.960;6.830;2023-06-10T02:51:45;14.90;79.90
14733;DHT22;7457;50.960;6.830;2023-06-10T02:54:10;14.90;80.10
14733;DHT22;7457;50.960;6.830;2023-06-10T02:56:36;14.80;80.30
14733;DHT22;7457;50.960;6.830;2023-06-10T02:59:07;14.70;80.50
14733;DHT22;7457;50.960;6.830;2023-06-10T03:01:33;14.70;80.60
14733;DHT22;7457;50.960;6.830;2023-06-10T03:04:03;14.60;80.80
14733;DHT22;7457;50.960;6.830;2023-06-10T03:06:29;14.50;81.10
14733;DHT22;7457;50.960;6.830;2023-06-10T03:08:55;14.50;81.40
14733;DHT22;7457;50.960;6.830;2023-06-10T03:11:20;14.40;81.70
14733;DHT22;7457;50.960;6.830;2023-06-10T03:13:46;14.40;81.90
14733;DHT22;7457;50.960;6.830;2023-06-10T03:16:12;14.40;82.10
14733;DHT22;7457;50.960;6.830;2023-06-10T03:18:37;14.40;82.30
14733;DHT22;7457;50.960;6.830;2023-06-10T03:21:03;14.40;82.50
14733;DHT22;7457;50.960;6.830;2023-06-10T03:23:29;14.30;82.60
14733;DHT22;7457;50.960;6.830;2023-06-10T03:25:55;14.30;82.70
14733;DHT22;7457;50.960;6.830;2023-06-10T03:28:20;14.30;82.90
14733;DHT22;7457;50.960;6.830;2023-06-10T03:30:47;14.30;83.10
14733;DHT22;7457;50.960;6.830;2023-06-10T03:33:13;14.30;83.20
14733;DHT22;7457;50.960;6.830;2023-06-10T03:35:39;14.30;83.30
14733;DHT22;7457;50.960;6.830;2023-06-10T03:38:05;14.30;83.40
14733;DHT22;7457;50.960;6.830;2023-06-10T03:40:31;14.30;83.30
14733;DHT22;7457;50.960;6.830;2023-06-10T03:42:57;14.30;83.40
14733;DHT22;7457;50.960;6.830;2023-06-10T03:45:23;14.30;83.70
14733;DHT22;7457;50.960;6.830;2023-06-10T03:47:49;14.30;83.70
14733;DHT22;7457;50.960;6.830;2023-06-10T03:50:16;14.20;83.90
14733;DHT22;7457;50.960;6.830;2023-06-10T03:52:42;14.20;84.20
14733;DHT22;7457;50.960;6.830;2023-06-10T03:55:07;14.20;84.50
14733;DHT22;7457;50.960;6.830;2023-06-10T03:57:36;14.20;84.80
14733;DHT22;7457;50.960;6.830;2023-06-10T04:00:01;14.20;85.20
14733;DHT22;7457;50.960;6.830;2023-06-10T04:02:31;14.30;85.40
14733;DHT22;7457;50.960;6.830;2023-06-10T04:04:58;14.40;85.50
14733;DHT22;7457;50.960;6.830;2023-06-10T04:07:24;14.50;85.40
14733;DHT22;7457;50.960;6.830;2023-06-10T04:09:49;14.50;85.40
14733;DHT22;7457;50.960;6.830;2023-06-10T04:12:15;14.60;85.30
14733;DHT22;7457;50.960;6.830;2023-06-10T04:14:42;14.70;85.30
14733;DHT22;7457;50.960;6.830;2023-06-10T04:17:08;14.70;85.30
14733;DHT22;7457;50.960;6.830;2023-06-10T04:19:34;14.90;85.30
14733;DHT22;7457;50.960;6.830;2023-06-10T04:22:01;15.00;85.30
14733;DHT22;7457;50.960;6.830;2023-06-10T04:24:28;15.10;85.20
14733;DHT22;7457;50.960;6.830;2023-06-10T04:26:53;15.20;85.00
14733;DHT22;7457;50.960;6.830;2023-06-10T04:29:19;15.30;84.80
14733;DHT22;7457;50.960;6.830;2023-06-10T04:31:45;15.40;84.80
14733;DHT22;7457;50.960;6.830;2023-06-10T04:34:12;15.50;85.60
14733;DHT22;7457;50.960;6.830;2023-06-10T04:36:38;15.70;84.40
14733;DHT22;7457;50.960;6.830;2023-06-10T04:39:03;15.90;83.80
14733;DHT22;7457;50.960;6.830;2023-06-10T04:41:31;16.10;83.70
14733;DHT22;7457;50.960;6.830;2023-06-10T04:43:56;16.20;83.90
14733;DHT22;7457;50.960;6.830;2023-06-10T04:46:23;16.50;84.50
14733;DHT22;7457;50.960;6.830;2023-06-10T04:48:49;17.10;83.90
14733;DHT22;7457;50.960;6.830;2023-06-10T04:51:15;17.80;82.60
14733;DHT22;7457;50.960;6.830;2023-06-10T04:53:42;18.40;81.00
14733;DHT22;7457;50.960;6.830;2023-06-10T04:56:07;18.90;79.20
14733;DHT22;7457;50.960;6.830;2023-06-10T04:58:33;19.30;78.00
14733;DHT22;7457;50.960;6.830;2023-06-10T05:00:59;19.50;77.10
14733;DHT22;7457;50.960;6.830;2023-06-10T05:03:25;19.70;76.80
14733;DHT22;7457;50.960;6.830;2023-06-10T05:05:51;19.80;76.50
14733;DHT22;7457;50.960;6.830;2023-06-10T05:08:17;19.80;76.10
14733;DHT22;7457;50.960;6.830;2023-06-10T05:10:43;19.80;76.10
14733;DHT22;7457;50.960;6.830;2023-06-10T05:13:09;19.80;76.60
14733;DHT22;7457;50.960;6.830;2023-06-10T05:15:35;19.90;77.10
14733;DHT22;7457;50.960;6.830;2023-06-10T05:18:00;20.20;77.70
14733;DHT22;7457;50.960;6.830;2023-06-10T05:20:28;20.80;77.20
14733;DHT22;7457;50.960;6.830;2023-06-10T05:22:54;21.50;75.80
14733;DHT22;7457;50.960;6.830;2023-06-10T05:25:20;22.10;73.90
14733;DHT22;7457;50.960;6.830;2023-06-10T05:27:46;22.40;72.30
14733;DHT22;7457;50.960;6.830;2023-06-10T05:30:12;22.60;71.00
14733;DHT22;7457;50.960;6.830;2023-06-10T05:32:38;22.50;70.70
14733;DHT22;7457;50.960;6.830;2023-06-10T05:35:03;22.30;70.90
14733;DHT22;7457;50.960;6.830;2023-06-10T05:37:30;22.00;71.30
14733;DHT22;7457;50.960;6.830;2023-06-10T05:39:55;21.70;71.60
14733;DHT22;7457;50.960;6.830;2023-06-10T05:42:21;21.60;71.80
14733;DHT22;7457;50.960;6.830;2023-06-10T05:44:47;21.50;71.50
14733;DHT22;7457;50.960;6.830;2023-06-10T05:47:12;21.40;71.50
14733;DHT22;7457;50.960;6.830;2023-06-10T05:49:38;21.40;70.90
14733;DHT22;7457;50.960;6.830;2023-06-10T05:52:04;21.50;70.30
14733;DHT22;7457;50.960;6.830;2023-06-10T05:54:30;21.50;68.80
14733;DHT22;7457;50.960;6.830;2023-06-10T05:56:56;21.50;68.20
14733;DHT22;7457;50.960;6.830;2023-06-10T05:59:21;21.50;68.20
14733;DHT22;7457;50.960;6.830;2023-06-10T06:01:49;21.60;68.30
14733;DHT22;7457;50.960;6.830;2023-06-10T06:04:15;21.60;67.60
14733;DHT22;7457;50.960;6.830;2023-06-10T06:06:41;21.70;67.10
14733;DHT22;7457;50.960;6.830;2023-06-10T06:09:07;21.80;66.80
14733;DHT22;7457;50.960;6.830;2023-06-10T06:11:34;21.90;66.30
14733;DHT22;7457;50.960;6.830;2023-06-10T06:14:00;22.00;65.80
14733;DHT22;7457;50.960;6.830;2023-06-10T06:16:25;22.10;65.50
14733;DHT22;7457;50.960;6.830;2023-06-10T06:18:51;22.20;64.90
14733;DHT22;7457;50.960;6.830;2023-06-10T06:21:17;22.30;64.60
14733;DHT22;7457;50.960;6.830;2023-06-10T06:23:42;22.30;64.60
14733;DHT22;7457;50.960;6.830;2023-06-10T06:26:08;22.40;64.40
14733;DHT22;7457;50.960;6.830;2023-06-10T06:28:34;22.40;64.30
14733;DHT22;7457;50.960;6.830;2023-06-10T06:30:59;22.40;64.20
14733;DHT22;7457;50.960;6.830;2023-06-10T06:33:25;22.50;63.90
14733;DHT22;7457;50.960;6.830;2023-06-10T06:35:51;22.60;63.50
14733;DHT22;7457;50.960;6.830;2023-06-10T06:38:17;22.80;62.60
14733;DHT22;7457;50.960;6.830;2023-06-10T06:40:43;22.90;61.40
14733;DHT22;7457;50.960;6.830;2023-06-10T06:43:09;22.90;60.50
14733;DHT22;7457;50.960;6.830;2023-06-10T06:45:34;23.10;60.60
14733;DHT22;7457;50.960;6.830;2023-06-10T06:48:00;23.20;59.30
14733;DHT22;7457;50.960;6.830;2023-06-10T06:50:26;23.40;59.00
14733;DHT22;7457;50.960;6.830;2023-06-10T06:52:51;23.50;57.50
14733;DHT22;7457;50.960;6.830;2023-06-10T06:55:17;23.60;56.40
14733;DHT22;7457;50.960;6.830;2023-06-10T06:57:42;23.70;56.50
14733;DHT22;7457;50.960;6.830;2023-06-10T07:00:08;23.90;56.40
14733;DHT22;7457;50.960;6.830;2023-06-10T07:02:35;23.90;55.70
14733;DHT22;7457;50.960;6.830;2023-06-10T07:05:01;24.00;54.30
14733;DHT22;7457;50.960;6.830;2023-06-10T07:07:27;24.00;53.80
14733;DHT22;7457;50.960;6.830;2023-06-10T07:09:52;24.00;53.10
14733;DHT22;7457;50.960;6.830;2023-06-10T07:12:18;24.00;53.30
14733;DHT22;7457;50.960;6.830;2023-06-10T07:14:44;24.00;53.20
14733;DHT22;7457;50.960;6.830;2023-06-10T07:17:10;24.20;53.60
14733;DHT22;7457;50.960;6.830;2023-06-10T07:19:35;24.50;53.10
14733;DHT22;7457;50.960;6.830;2023-06-10T07:22:01;24.90;52.10
14733;DHT22;7457;50.960;6.830;2023-06-10T07:24:27;25.10;51.00
14733;DHT22;7457;50.960;6.830;2023-06-10T07:26:52;25.20;50.90
14733;DHT22;7457;50.960;6.830;2023-06-10T07:29:18;25.40;50.60
14733;DHT22;7457;50.960;6.830;2023-06-10T07:31:44;25.50;50.60
14733;DHT22;7457;50.960;6.830;2023-06-10T07:34:09;25.50;50.50
14733;DHT22;7457;50.960;6.830;2023-06-10T07:36:35;25.40;50.30
14733;DHT22;7457;50.960;6.830;2023-06-10T07:39:02;25.30;50.00
14733;DHT22;7457;50.960;6.830;2023-06-10T07:41:27;25.20;50.80
14733;DHT22;7457;50.960;6.830;2023-06-10T07:43:53;25.10;50.60
14733;DHT22;7457;50.960;6.830;2023-06-10T07:46:22;25.10;51.10
14733;DHT22;7457;50.960;6.830;2023-06-10T07:48:48;25.10;51.20
14733;DHT22;7457;50.960;6.830;2023-06-10T07:51:15;25.10;50.70
14733;DHT22;7457;50.960;6.830;2023-06-10T07:53:41;25.10;50.80
14733;DHT22;7457;50.960;6.830;2023-06-10T07:56:07;25.10;50.60
14733;DHT22;7457;50.960;6.830;2023-06-10T07:58:32;25.10;51.00
14733;DHT22;7457;50.960;6.830;2023-06-10T08:00:58;25.20;50.40
14733;DHT22;7457;50.960;6.830;2023-06-10T08:03:24;25.30;50.00
14733;DHT22;7457;50.960;6.830;2023-06-10T08:05:49;25.30;50.30
14733;DHT22;7457;50.960;6.830;2023-06-10T08:08:15;25.50;50.50
14733;DHT22;7457;50.960;6.830;2023-06-10T08:10:41;25.80;49.70
14733;DHT22;7457;50.960;6.830;2023-06-10T08:13:07;25.90;49.20
14733;DHT22;7457;50.960;6.830;2023-06-10T08:15:33;25.90;48.70
14733;DHT22;7457;50.960;6.830;2023-06-10T08:17:59;25.90;49.30
14733;DHT22;7457;50.960;6.830;2023-06-10T08:20:25;25.90;49.50
14733;DHT22;7457;50.960;6.830;2023-06-10T08:22:51;26.00;49.60
14733;DHT22;7457;50.960;6.830;2023-06-10T08:25:16;26.10;49.20
14733;DHT22;7457;50.960;6.830;2023-06-10T08:27:42;26.20;48.90
14733;DHT22;7457;50.960;6.830;2023-06-10T08:30:08;26.20;49.30
14733;DHT22;7457;50.960;6.830;2023-06-10T08:32:36;26.40;49.30
14733;DHT22;7457;50.960;6.830;2023-06-10T08:35:02;26.50;49.00
14733;DHT22;7457;50.960;6.830;2023-06-10T08:37:27;26.60;49.40
14733;DHT22;7457;50.960;6.830;2023-06-10T08:39:53;26.70;49.20
14733;DHT22;7457;50.960;6.830;2023-06-10T08:44:49;27.00;49.60
14733;DHT22;7457;50.960;6.830;2023-06-10T08:47:18;27.20;49.80
14733;DHT22;7457;50.960;6.830;2023-06-10T08:49:46;27.40;49.30
14733;DHT22;7457;50.960;6.830;2023-06-10T08:52:19;27.70;49.00
14733;DHT22;7457;50.960;6.830;2023-06-10T08:55:00;27.90;48.40
14733;DHT22;7457;50.960;6.830;2023-06-10T08:57:28;28.10;47.60
14733;DHT22;7457;50.960;6.830;2023-06-10T08:59:56;28.40;47.70
14733;DHT22;7457;50.960;6.830;2023-06-10T09:02:22;28.80;46.60
14733;DHT22;7457;50.960;6.830;2023-06-10T09:04:49;29.20;46.00
14733;DHT22;7457;50.960;6.830;2023-06-10T09:07:15;29.60;46.20
14733;DHT22;7457;50.960;6.830;2023-06-10T09:09:45;30.30;46.20
14733;DHT22;7457;50.960;6.830;2023-06-10T09:12:14;31.10;45.10
14733;DHT22;7457;50.960;6.830;2023-06-10T09:14:41;31.70;44.40
14733;DHT22;7457;50.960;6.830;2023-06-10T09:17:07;32.30;43.00
14733;DHT22;7457;50.960;6.830;2023-06-10T09:19:33;32.40;41.50
14733;DHT22;7457;50.960;6.830;2023-06-10T09:22:00;32.30;41.60
14733;DHT22;7457;50.960;6.830;2023-06-10T09:24:26;32.30;41.30
14733;DHT22;7457;50.960;6.830;2023-06-10T09:27:08;32.30;41.00
14733;DHT22;7457;50.960;6.830;2023-06-10T09:29:54;32.30;41.10
14733;DHT22;7457;50.960;6.830;2023-06-10T09:32:20;32.30;41.30
14733;DHT22;7457;50.960;6.830;2023-06-10T09:34:47;32.60;41.80
14733;DHT22;7457;50.960;6.830;2023-06-10T09:37:12;32.90;41.80
14733;DHT22;7457;50.960;6.830;2023-06-10T09:39:40;33.40;41.50
14733;DHT22;7457;50.960;6.830;2023-06-10T09:42:18;33.80;40.70
14733;DHT22;7457;50.960;6.830;2023-06-10T09:44:51;34.00;40.50
14733;DHT22;7457;50.960;6.830;2023-06-10T09:47:23;34.10;39.70
14733;DHT22;7457;50.960;6.830;2023-06-10T09:49:49;34.20;40.00
14733;DHT22;7457;50.960;6.830;2023-06-10T09:52:24;34.30;39.90
14733;DHT22;7457;50.960;6.830;2023-06-10T09:54:55;34.20;38.80
14733;DHT22;7457;50.960;6.830;2023-06-10T09:57:24;34.00;40.10
14733;DHT22;7457;50.960;6.830;2023-06-10T09:59:53;34.10;40.50
14733;DHT22;7457;50.960;6.830;2023-06-10T10:02:19;34.40;40.20
14733;DHT22;7457;50.960;6.830;2023-06-10T10:04:45;34.70;39.80
14733;DHT22;7457;50.960;6.830;2023-06-10T10:07:11;34.80;39.20
14733;DHT22;7457;50.960;6.830;2023-06-10T10:09:38;34.70;39.10
14733;DHT22;7457;50.960;6.830;2023-06-10T10:12:15;34.50;39.10
14733;DHT22;7457;50.960;6.830;2023-06-10T10:14:46;34.40;38.70
14733;DHT22;7457;50.960;6.830;2023-06-10T10:17:14;34.40;38.90
14733;DHT22;7457;50.960;6.830;2023-06-10T10:19:46;34.40;38.80
14733;DHT22;7457;50.960;6.830;2023-06-10T10:22:19;34.30;39.20
14733;DHT22;7457;50.960;6.830;2023-06-10T10:24:52;34.60;39.20
14733;DHT22;7457;50.960;6.830;2023-06-10T10:27:27;34.90;39.00
14733;DHT22;7457;50.960;6.830;2023-06-10T10:29:54;35.00;37.60
14733;DHT22;7457;50.960;6.830;2023-06-10T10:32:32;34.70;38.00
14733;DHT22;7457;50.960;6.830;2023-06-10T10:35:16;34.60;38.10
14733;DHT22;7457;50.960;6.830;2023-06-10T10:37:43;34.50;38.40
14733;DHT22;7457;50.960;6.830;2023-06-10T10:40:10;34.40;38.50
14733;DHT22;7457;50.960;6.830;2023-06-10T10:42:37;34.30;38.50
14733;DHT22;7457;50.960;6.830;2023-06-10T10:45:04;34.40;39.00
14733;DHT22;7457;50.960;6.830;2023-06-10T10:47:31;34.50;39.70
14733;DHT22;7457;50.960;6.830;2023-06-10T10:49:58;34.80;39.10
14733;DHT22;7457;50.960;6.830;2023-06-10T10:52:27;34.90;38.10
14733;DHT22;7457;50.960;6.830;2023-06-10T10:54:54;34.80;37.70
14733;DHT22;7457;50.960;6.830;2023-06-10T10:57:24;34.80;38.20
14733;DHT22;7457;50.960;6.830;2023-06-10T10:59:54;34.60;38.20
14733;DHT22;7457;50.960;6.830;2023-06-10T11:05:06;34.40;37.70
14733;DHT22;7457;50.960;6.830;2023-06-10T11:07:34;34.50;38.80
14733;DHT22;7457;50.960;6.830;2023-06-10T11:10:09;34.40;36.40
14733;DHT22;7457;50.960;6.830;2023-06-10T11:15:12;33.30;37.50
14733;DHT22;7457;50.960;6.830;2023-06-10T11:17:37;33.20;37.90
14733;DHT22;7457;50.960;6.830;2023-06-10T11:20:03;33.30;37.70
14733;DHT22;7457;50.960;6.830;2023-06-10T11:22:30;33.10;35.40
14733;DHT22;7457;50.960;6.830;2023-06-10T11:24:56;32.70;35.40
14733;DHT22;7457;50.960;6.830;2023-06-10T11:27:24;32.20;35.90
14733;DHT22;7457;50.960;6.830;2023-06-10T11:32:33;32.50;38.80
14733;DHT22;7457;50.960;6.830;2023-06-10T11:34:59;32.40;38.40
14733;DHT22;7457;50.960;6.830;2023-06-10T11:37:25;32.20;39.00
14733;DHT22;7457;50.960;6.830;2023-06-10T11:39:54;32.00;39.30
14733;DHT22;7457;50.960;6.830;2023-06-10T11:42:21;31.80;42.30
14733;DHT22;7457;50.960;6.830;2023-06-10T11:44:49;32.10;41.80
14733;DHT22;7457;50.960;6.830;2023-06-10T11:47:15;32.30;39.90
14733;DHT22;7457;50.960;6.830;2023-06-10T11:49:41;32.30;41.00
14733;DHT22;7457;50.960;6.830;2023-06-10T11:52:06;32.10;36.90
14733;DHT22;7457;50.960;6.830;2023-06-10T11:54:32;31.90;38.00
14733;DHT22;7457;50.960;6.830;2023-06-10T11:56:59;31.60;37.80
14733;DHT22;7457;50.960;6.830;2023-06-10T11:59:29;31.50;38.50
14733;DHT22;7457;50.960;6.830;2023-06-10T12:01:55;31.40;41.50
14733;DHT22;7457;50.960;6.830;2023-06-10T12:04:21;31.30;39.80
14733;DHT22;7457;50.960;6.830;2023-06-10T12:06:52;31.30;40.30
14733;DHT22;7457;50.960;6.830;2023-06-10T12:09:22;31.10;40.10
14733;DHT22;7457;50.960;6.830;2023-06-10T12:11:59;31.00;39.80
14733;DHT22;7457;50.960;6.830;2023-06-10T12:19:58;30.70;41.20
14733;DHT22;7457;50.960;6.830;2023-06-10T12:22:25;30.90;39.30
14733;DHT22;7457;50.960;6.830;2023-06-10T12:25:03;31.00;38.50
14733;DHT22;7457;50.960;6.830;2023-06-10T12:27:30;30.90;38.20
14733;DHT22;7457;50.960;6.830;2023-06-10T12:29:58;30.80;38.20
14733;DHT22;7457;50.960;6.830;2023-06-10T12:32:46;30.90;39.70
14733;DHT22;7457;50.960;6.830;2023-06-10T12:35:17;31.00;37.70
14733;DHT22;7457;50.960;6.830;2023-06-10T12:38:00;31.00;36.80
14733;DHT22;7457;50.960;6.830;2023-06-10T12:40:39;30.80;36.60
14733;DHT22;7457;50.960;6.830;2023-06-10T12:43:07;30.50;36.50
14733;DHT22;7457;50.960;6.830;2023-06-10T12:45:34;30.10;37.10
14733;DHT22;7457;50.960;6.830;2023-06-10T12:50:40;29.70;38.80
14733;DHT22;7457;50.960;6.830;2023-06-10T12:53:06;29.70;39.70
14733;DHT22;7457;50.960;6.830;2023-06-10T12:55:32;30.00;40.20
14733;DHT22;7457;50.960;6.830;2023-06-10T12:57:59;30.40;40.00
14733;DHT22;7457;50.960;6.830;2023-06-10T13:00:25;30.60;37.40
14733;DHT22;7457;50.960;6.830;2023-06-10T13:02:54;30.60;37.00
14733;DHT22;7457;50.960;6.830;2023-06-10T13:05:20;30.40;36.70
14733;DHT22;7457;50.960;6.830;2023-06-10T13:07:46;30.20;36.60
14733;DHT22;7457;50.960;6.830;2023-06-10T13:10:16;30.00;36.60
14733;DHT22;7457;50.960;6.830;2023-06-10T13:12:45;29.80;36.60
14733;DHT22;7457;50.960;6.830;2023-06-10T13:15:12;29.70;36.90
14733;DHT22;7457;50.960;6.830;2023-06-10T13:17:38;29.60;36.80
14733;DHT22;7457;50.960;6.830;2023-06-10T13:20:05;29.60;38.50
14733;DHT22;7457;50.960;6.830;2023-06-10T13:22:32;29.60;36.80
14733;DHT22;7457;50.960;6.830;2023-06-10T13:25:05;29.80;38.30
14733;DHT22;7457;50.960;6.830;2023-06-10T13:27:32;30.10;38.40
14733;DHT22;7457;50.960;6.830;2023-06-10T13:29:58;30.30;35.90
14733;DHT22;7457;50.960;6.830;2023-06-10T13:32:23;30.30;34.00
14733;DHT22;7457;50.960;6.830;2023-06-10T13:34:49;30.30;33.70
14733;DHT22;7457;50.960;6.830;2023-06-10T13:37:15;30.20;34.00
14733;DHT22;7457;50.960;6.830;2023-06-10T13:39:45;30.20;33.90
14733;DHT22;7457;50.960;6.830;2023-06-10T13:42:14;30.10;34.20
14733;DHT22;7457;50.960;6.830;2023-06-10T13:44:40;30.00;34.70
14733;DHT22;7457;50.960;6.830;2023-06-10T13:47:06;30.00;35.80
14733;DHT22;7457;50.960;6.830;2023-06-10T13:49:32;30.10;35.50
14733;DHT22;7457;50.960;6.830;2023-06-10T13:51:57;30.20;34.40
14733;DHT22;7457;50.960;6.830;2023-06-10T13:54:23;30.20;34.70
14733;DHT22;7457;50.960;6.830;2023-06-10T13:56:49;30.20;34.10
14733;DHT22;7457;50.960;6.830;2023-06-10T13:59:14;30.10;34.30
14733;DHT22;7457;50.960;6.830;2023-06-10T14:01:40;30.00;34.60
14733;DHT22;7457;50.960;6.830;2023-06-10T14:04:07;29.90;36.30
14733;DHT22;7457;50.960;6.830;2023-06-10T14:06:33;30.00;36.70
14733;DHT22;7457;50.960;6.830;2023-06-10T14:09:00;30.20;36.60
14733;DHT22;7457;50.960;6.830;2023-06-10T14:11:25;30.40;35.80
14733;DHT22;7457;50.960;6.830;2023-06-10T14:13:51;30.50;34.30
14733;DHT22;7457;50.960;6.830;2023-06-10T14:16:17;30.60;35.20
14733;DHT22;7457;50.960;6.830;2023-06-10T14:18:43;30.60;32.80
14733;DHT22;7457;50.960;6.830;2023-06-10T14:21:08;30.60;33.60
14733;DHT22;7457;50.960;6.830;2023-06-10T14:23:34;30.70;34.10
14733;DHT22;7457;50.960;6.830;2023-06-10T14:26:00;30.70;33.80
14733;DHT22;7457;50.960;6.830;2023-06-10T14:28:27;30.80;34.00
14733;DHT22;7457;50.960;6.830;2023-06-10T14:30:54;30.80;33.00
14733;DHT22;7457;50.960;6.830;2023-06-10T14:33:20;30.90;33.20
14733;DHT22;7457;50.960;6.830;2023-06-10T14:35:45;30.90;32.40
14733;DHT22;7457;50.960;6.830;2023-06-10T14:38:11;31.00;32.50
14733;DHT22;7457;50.960;6.830;2023-06-10T14:40:37;31.10;32.40
14733;DHT22;7457;50.960;6.830;2023-06-10T14:43:02;31.20;33.00
14733;DHT22;7457;50.960;6.830;2023-06-10T14:45:38;31.20;33.00
14733;DHT22;7457;50.960;6.830;2023-06-10T14:48:04;31.30;33.90
14733;DHT22;7457;50.960;6.830;2023-06-10T14:50:30;31.40;33.50
14733;DHT22;7457;50.960;6.830;2023-06-10T14:52:56;31.50;33.90
14733;DHT22;7457;50.960;6.830;2023-06-10T14:55:21;31.40;33.80
14733;DHT22;7457;50.960;6.830;2023-06-10T14:57:50;31.30;33.60
14733;DHT22;7457;50.960;6.830;2023-06-10T15:00:16;31.10;34.00
14733;DHT22;7457;50.960;6.830;2023-06-10T15:02:46;31.10;34.20
14733;DHT22;7457;50.960;6.830;2023-06-10T15:05:15;31.10;33.90
14733;DHT22;7457;50.960;6.830;2023-06-10T15:07:41;31.10;34.00
14733;DHT22;7457;50.960;6.830;2023-06-10T15:10:07;31.10;34.20
14733;DHT22;7457;50.960;6.830;2023-06-10T15:12:34;31.20;34.30
14733;DHT22;7457;50.960;6.830;2023-06-10T15:14:59;31.20;34.10
14733;DHT22;7457;50.960;6.830;2023-06-10T15:17:25;31.20;34.60
14733;DHT22;7457;50.960;6.830;2023-06-10T15:19:50;31.30;33.80
14733;DHT22;7457;50.960;6.830;2023-06-10T15:22:16;31.30;34.80
14733;DHT22;7457;50.960;6.830;2023-06-10T15:24:42;31.20;33.80
14733;DHT22;7457;50.960;6.830;2023-06-10T15:27:08;31.20;33.80
14733;DHT22;7457;50.960;6.830;2023-06-10T15:29:33;31.00;32.90
14733;DHT22;7457;50.960;6.830;2023-06-10T15:31:59;30.70;32.80
14733;DHT22;7457;50.960;6.830;2023-06-10T15:34:24;30.40;33.20
14733;DHT22;7457;50.960;6.830;2023-06-10T15:36:50;30.10;33.10
14733;DHT22;7457;50.960;6.830;2023-06-10T15:39:16;29.80;33.40
14733;DHT22;7457;50.960;6.830;2023-06-10T15:41:41;29.60;33.70
14733;DHT22;7457;50.960;6.830;2023-06-10T15:44:07;29.40;33.80
14733;DHT22;7457;50.960;6.830;2023-06-10T15:46:33;29.30;35.30
14733;DHT22;7457;50.960;6.830;2023-06-10T15:49:00;29.30;35.40
14733;DHT22;7457;50.960;6.830;2023-06-10T15:51:25;29.40;35.40
14733;DHT22;7457;50.960;6.830;2023-06-10T15:53:51;29.60;35.60
14733;DHT22;7457;50.960;6.830;2023-06-10T15:56:17;29.70;35.40
14733;DHT22;7457;50.960;6.830;2023-06-10T15:58:43;29.90;35.40
14733;DHT22;7457;50.960;6.830;2023-06-10T16:01:09;30.00;35.10
14733;DHT22;7457;50.960;6.830;2023-06-10T16:03:35;30.10;35.10
14733;DHT22;7457;50.960;6.830;2023-06-10T16:06:01;30.10;35.20